createdAt,value
2019-03-16T00:00:40.837Z,9.03
2019-03-16T00:03:11.258Z,3.57
2019-03-16T00:05:41.830Z,4.37
2019-03-16T00:08:12.431Z,4.40
2019-03-16T00:10:42.950Z,6.90
2019-03-16T00:13:16.071Z,5.17
2019-03-16T00:15:45.932Z,6.30
2019-03-16T00:18:16.868Z,3.33
2019-03-16T00:20:47.272Z,3.07
2019-03-16T00:23:17.727Z,4.27
2019-03-16T00:25:48.235Z,5.33
2019-03-16T00:28:19.502Z,3.00
2019-03-16T00:30:49.897Z,5.83
2019-03-16T00:33:20.248Z,3.20
2019-03-16T00:35:51.696Z,6.47
2019-03-16T00:38:24.395Z,5.70
2019-03-16T00:40:54.742Z,5.90
2019-03-16T00:43:25.245Z,4.00
2019-03-16T00:45:56.051Z,2.80
2019-03-16T00:48:26.704Z,4.33
2019-03-16T00:50:57.237Z,3.00
2019-03-16T00:53:28.108Z,2.97
2019-03-16T00:55:58.396Z,3.50
2019-03-16T00:58:28.997Z,3.00
2019-03-16T01:00:59.315Z,5.50
2019-03-16T01:03:29.725Z,7.93
2019-03-16T01:06:00.228Z,3.10
2019-03-16T01:08:30.732Z,3.40
2019-03-16T01:11:01.203Z,1.87
2019-03-16T01:13:31.583Z,6.53
2019-03-16T01:16:02.056Z,5.73
2019-03-16T01:18:32.550Z,3.13
2019-03-16T01:21:02.929Z,4.80
2019-03-16T01:23:33.463Z,3.20
2019-03-16T01:26:03.866Z,4.70
2019-03-16T01:28:34.372Z,3.70
2019-03-16T01:31:06.529Z,3.73
2019-03-16T01:33:37.111Z,5.47
2019-03-16T01:36:07.604Z,4.30
2019-03-16T01:38:38.030Z,4.53
2019-03-16T01:41:08.618Z,4.30
2019-03-16T01:43:38.958Z,7.77
2019-03-16T01:46:09.403Z,10.87
2019-03-16T01:48:39.814Z,7.10
2019-03-16T01:51:10.379Z,4.37
2019-03-16T01:53:40.776Z,9.47
2019-03-16T01:56:11.331Z,5.23
2019-03-16T01:58:42.490Z,5.40
2019-03-16T02:01:13.948Z,3.47
2019-03-16T02:03:44.460Z,4.23
2019-03-16T02:06:14.913Z,6.23
2019-03-16T02:08:45.343Z,5.30
2019-03-16T02:11:15.674Z,4.47
2019-03-16T02:13:46.273Z,5.33
2019-03-16T02:16:16.619Z,8.90
2019-03-16T02:18:47.154Z,4.43
2019-03-16T02:21:17.461Z,2.67
2019-03-16T02:23:48.013Z,5.37
2019-03-16T02:26:18.401Z,2.60
2019-03-16T02:28:48.844Z,4.53
2019-03-16T02:31:19.270Z,8.03
2019-03-16T02:33:49.923Z,7.60
2019-03-16T02:36:20.446Z,7.23
2019-03-16T02:38:51.457Z,4.57
2019-03-16T02:41:21.932Z,5.47
2019-03-16T02:43:53.359Z,5.63
2019-03-16T02:46:24.003Z,7.23
2019-03-16T02:48:55.235Z,5.10
2019-03-16T02:51:25.680Z,3.10
2019-03-16T02:53:56.035Z,4.53
2019-03-16T02:56:26.348Z,5.70
2019-03-16T02:58:56.908Z,7.07
2019-03-16T03:01:27.230Z,4.20
2019-03-16T03:03:57.589Z,2.60
2019-03-16T03:06:28.100Z,3.80
2019-03-16T03:08:59.627Z,4.33
2019-03-16T03:11:30.029Z,6.33
2019-03-16T03:14:00.451Z,4.67
2019-03-16T03:16:30.888Z,6.57
2019-03-16T03:19:01.212Z,3.40
2019-03-16T03:21:31.707Z,5.27
2019-03-16T03:24:02.132Z,4.13
2019-03-16T03:26:33.459Z,8.23
2019-03-16T03:29:03.873Z,8.97
2019-03-16T03:31:34.327Z,3.83
2019-03-16T03:34:04.674Z,4.53
2019-03-16T03:36:35.067Z,4.57
2019-03-16T03:39:06.583Z,7.10
2019-03-16T03:41:36.933Z,5.23
2019-03-16T03:44:07.436Z,7.43
2019-03-16T03:46:37.901Z,7.73
2019-03-16T03:49:08.759Z,7.83
2019-03-16T03:51:39.127Z,5.30
2019-03-16T03:54:09.687Z,6.93
2019-03-16T03:56:40.169Z,4.07
2019-03-16T03:59:10.491Z,6.77
2019-03-16T04:01:40.863Z,4.50
2019-03-16T04:04:15.625Z,6.87
2019-03-16T04:06:44.603Z,8.13
2019-03-16T04:09:16.619Z,6.30
2019-03-16T04:11:46.965Z,6.10
2019-03-16T04:14:17.596Z,6.83
2019-03-16T04:16:48.226Z,7.53
2019-03-16T04:19:18.644Z,4.47
2019-03-16T04:21:49.360Z,6.30
2019-03-16T04:24:20.144Z,7.23
2019-03-16T04:26:50.820Z,3.97
2019-03-16T04:29:21.502Z,5.07
2019-03-16T04:31:52.068Z,7.37
2019-03-16T04:34:29.238Z,3.97
2019-03-16T04:36:54.711Z,7.37
2019-03-16T04:39:25.127Z,6.53
2019-03-16T04:41:55.576Z,3.30
2019-03-16T04:44:25.830Z,4.70
2019-03-16T04:46:56.190Z,5.73
2019-03-16T04:49:26.536Z,6.37
2019-03-16T04:51:56.978Z,5.47
2019-03-16T04:54:27.333Z,4.57
2019-03-16T04:56:57.995Z,5.93
2019-03-16T04:59:28.336Z,2.07
2019-03-16T05:01:58.658Z,3.10
2019-03-16T05:04:41.627Z,5.10
2019-03-16T05:07:01.263Z,7.20
2019-03-16T05:09:31.664Z,4.27
2019-03-16T05:12:02.171Z,2.43
2019-03-16T05:14:32.610Z,7.47
2019-03-16T05:17:02.996Z,5.80
2019-03-16T05:19:33.376Z,6.90
2019-03-16T05:22:04.959Z,6.87
2019-03-16T05:24:35.330Z,7.50
2019-03-16T05:27:06.021Z,3.10
2019-03-16T05:29:36.337Z,6.03
2019-03-16T05:32:06.661Z,5.23
2019-03-16T05:34:37.010Z,12.60
2019-03-16T05:37:07.785Z,14.47
2019-03-16T05:39:38.201Z,2.90
2019-03-16T05:42:10.169Z,6.63
2019-03-16T05:44:40.515Z,4.63
2019-03-16T05:47:10.944Z,6.97
2019-03-16T05:49:41.400Z,7.07
2019-03-16T05:52:11.860Z,5.73
2019-03-16T05:54:42.433Z,5.70
2019-03-16T05:57:12.986Z,10.13
2019-03-16T05:59:43.322Z,9.07
2019-03-16T06:02:13.850Z,8.60
2019-03-16T06:04:44.347Z,10.47
2019-03-16T06:07:14.913Z,5.97
2019-03-16T06:09:45.476Z,7.93
2019-03-16T06:12:15.885Z,9.60
2019-03-16T06:14:46.326Z,6.33
2019-03-16T06:17:16.683Z,4.53
2019-03-16T06:19:47.208Z,11.00
2019-03-16T06:22:17.675Z,4.13
2019-03-16T06:24:48.221Z,3.33
2019-03-16T06:27:18.564Z,5.50
2019-03-16T06:29:49.078Z,15.13
2019-03-16T06:32:19.499Z,4.93
2019-03-16T06:34:50.078Z,7.30
2019-03-16T06:37:20.508Z,7.93
2019-03-16T06:39:50.952Z,3.53
2019-03-16T06:42:21.398Z,4.33
2019-03-16T06:44:52.102Z,7.20
2019-03-16T06:47:23.292Z,8.20
2019-03-16T06:49:53.861Z,7.87
2019-03-16T06:52:24.581Z,8.20
2019-03-16T06:54:54.939Z,5.73
2019-03-16T06:57:26.940Z,4.53
2019-03-16T06:59:57.790Z,2.83
2019-03-16T07:02:28.227Z,7.50
2019-03-16T07:04:58.706Z,5.50
2019-03-16T07:07:29.093Z,8.40
2019-03-16T07:09:59.515Z,3.27
2019-03-16T07:12:29.979Z,4.17
2019-03-16T07:15:00.540Z,9.57
2019-03-16T07:17:30.879Z,3.83
2019-03-16T07:20:01.356Z,4.43
2019-03-16T07:22:31.914Z,4.37
2019-03-16T07:25:02.762Z,6.00
2019-03-16T07:27:33.102Z,8.13
2019-03-16T07:30:03.917Z,3.90
2019-03-16T07:32:34.397Z,9.87
2019-03-16T07:35:06.153Z,4.13
2019-03-16T07:37:36.611Z,6.07
2019-03-16T07:40:11.586Z,7.37
2019-03-16T07:42:42.116Z,9.43
2019-03-16T07:45:13.056Z,8.53
2019-03-16T07:47:43.480Z,9.93
2019-03-16T07:50:14.203Z,5.30
2019-03-16T07:52:44.691Z,10.47
2019-03-16T07:55:15.766Z,8.70
2019-03-16T07:57:46.341Z,4.90
2019-03-16T08:00:16.761Z,6.73
2019-03-16T08:02:47.176Z,9.87
2019-03-16T08:05:19.213Z,5.00
2019-03-16T08:07:50.044Z,5.70
2019-03-16T08:10:20.701Z,9.23
2019-03-16T08:12:51.069Z,6.47
2019-03-16T08:15:21.512Z,5.53
2019-03-16T08:17:52.332Z,7.80
2019-03-16T08:20:23.007Z,8.47
2019-03-16T08:22:53.743Z,7.90
2019-03-16T08:25:24.248Z,6.90
2019-03-16T08:27:54.910Z,8.03
2019-03-16T08:30:25.338Z,5.63
2019-03-16T08:32:56.536Z,8.07
2019-03-16T08:35:26.997Z,7.30
2019-03-16T08:37:57.367Z,12.40
2019-03-16T08:40:29.297Z,3.80
2019-03-16T08:43:01.140Z,4.83
2019-03-16T08:45:31.822Z,5.53
2019-03-16T08:48:07.971Z,5.97
2019-03-16T08:50:39.017Z,8.00
2019-03-16T08:53:09.571Z,5.43
2019-03-16T08:55:40.447Z,5.47
2019-03-16T08:58:11.148Z,5.03
2019-03-16T09:00:41.779Z,10.30
2019-03-16T09:03:12.291Z,9.93
2019-03-16T09:05:42.642Z,6.77
2019-03-16T09:08:13.288Z,6.77
2019-03-16T09:10:44.237Z,7.57
2019-03-16T09:13:14.893Z,7.37
2019-03-16T09:15:45.314Z,8.40
2019-03-16T09:18:16.007Z,6.67
2019-03-16T09:20:46.551Z,3.00
2019-03-16T09:23:17.056Z,4.80
2019-03-16T09:25:47.722Z,10.07
2019-03-16T09:28:19.192Z,6.20
2019-03-16T09:30:50.085Z,15.93
2019-03-16T09:33:21.079Z,2.90
2019-03-16T09:35:52.094Z,5.77
2019-03-16T09:38:22.749Z,6.13
2019-03-16T09:40:54.162Z,7.47
2019-03-16T09:43:26.847Z,8.77
2019-03-16T09:45:57.341Z,4.90
2019-03-16T09:48:27.991Z,4.27
2019-03-16T09:50:58.449Z,4.60
2019-03-16T09:53:28.981Z,4.43
2019-03-16T09:56:00.787Z,5.70
2019-03-16T09:58:31.824Z,4.63
2019-03-16T10:01:02.651Z,4.00
2019-03-16T10:03:33.217Z,3.67
2019-03-16T10:06:07.129Z,5.67
2019-03-16T10:08:38.007Z,7.33
2019-03-16T10:11:11.153Z,5.30
2019-03-16T10:13:43.706Z,4.77
2019-03-16T10:16:14.463Z,5.67
2019-03-16T10:18:45.768Z,7.90
2019-03-16T10:21:18.801Z,8.40
2019-03-16T10:23:50.511Z,7.60
2019-03-16T10:26:21.456Z,5.97
2019-03-16T10:28:52.404Z,10.57
2019-03-16T10:31:23.496Z,9.13
2019-03-16T10:33:54.675Z,6.67
2019-03-16T10:36:25.365Z,4.37
2019-03-16T10:38:55.943Z,7.70
2019-03-16T10:41:27.121Z,3.70
2019-03-16T10:43:58.396Z,7.90
2019-03-16T10:46:29.597Z,5.97
2019-03-16T10:49:00.132Z,6.40
2019-03-16T10:51:30.978Z,7.03
2019-03-16T10:54:01.856Z,8.17
2019-03-16T10:56:32.519Z,9.87
2019-03-16T10:59:03.191Z,6.93
2019-03-16T11:01:50.977Z,8.80
2019-03-16T11:04:24.047Z,4.47
2019-03-16T11:06:54.609Z,3.33
2019-03-16T11:09:26.710Z,7.00
2019-03-16T11:11:58.276Z,8.30
2019-03-16T11:14:29.871Z,7.27
2019-03-16T11:17:01.020Z,7.37
2019-03-16T11:19:33.318Z,4.43
2019-03-16T11:22:03.980Z,8.60
2019-03-16T11:24:34.589Z,8.80
2019-03-16T11:27:05.265Z,7.00
2019-03-16T11:29:35.829Z,9.57
2019-03-16T11:32:06.770Z,9.43
2019-03-16T11:34:37.257Z,8.37
2019-03-16T11:37:09.278Z,7.07
2019-03-16T11:39:39.795Z,6.67
2019-03-16T11:42:10.299Z,10.13
2019-03-16T11:44:42.577Z,8.97
2019-03-16T11:47:14.143Z,7.07
2019-03-16T11:49:45.482Z,7.93
2019-03-16T11:52:16.478Z,6.90
2019-03-16T11:54:48.251Z,9.63
2019-03-16T11:57:20.784Z,7.47
2019-03-16T11:59:51.468Z,5.27
2019-03-16T12:02:23.637Z,6.53
2019-03-16T12:04:54.107Z,5.30
2019-03-16T12:07:24.933Z,7.73
2019-03-16T12:09:55.581Z,5.23
2019-03-16T12:12:26.421Z,7.47
2019-03-16T12:14:58.475Z,5.03
2019-03-16T12:17:29.908Z,5.60
2019-03-16T12:20:00.400Z,4.60
2019-03-16T12:22:31.213Z,5.17
2019-03-16T12:25:01.799Z,5.43
2019-03-16T12:27:32.593Z,5.50
2019-03-16T12:30:03.488Z,16.87
2019-03-16T12:32:34.403Z,23.63
2019-03-16T12:35:07.507Z,23.83
2019-03-16T12:37:38.186Z,22.43
2019-03-16T12:40:14.700Z,30.00
2019-03-16T12:42:46.046Z,27.20
2019-03-16T12:45:20.611Z,38.50
2019-03-16T12:47:50.846Z,18.60
2019-03-16T12:50:21.203Z,5.47
2019-03-16T12:52:51.655Z,12.53
2019-03-16T12:55:22.689Z,6.80
2019-03-16T12:57:53.576Z,12.00
2019-03-16T13:00:24.323Z,9.93
2019-03-16T13:02:55.344Z,7.07
2019-03-16T13:05:26.787Z,7.80
2019-03-16T13:07:57.687Z,9.60
2019-03-16T13:10:30.106Z,9.37
2019-03-16T13:13:02.837Z,8.13
2019-03-16T13:15:33.514Z,14.57
2019-03-16T13:18:03.920Z,6.80
2019-03-16T13:20:34.459Z,10.83
2019-03-16T13:23:05.329Z,7.43
2019-03-16T13:25:35.758Z,5.63
2019-03-16T13:28:08.364Z,6.63
2019-03-16T13:30:39.074Z,7.77
2019-03-16T13:33:10.169Z,5.00
2019-03-16T13:35:40.807Z,6.73
2019-03-16T13:38:11.712Z,3.53
2019-03-16T13:40:43.066Z,8.57
2019-03-16T13:43:13.594Z,6.67
2019-03-16T13:45:45.015Z,5.67
2019-03-16T13:48:15.379Z,5.57
2019-03-16T13:50:46.168Z,5.37
2019-03-16T13:53:16.593Z,6.23
2019-03-16T13:55:48.931Z,9.83
2019-03-16T13:58:19.614Z,6.27
2019-03-16T14:00:50.353Z,8.87
2019-03-16T14:03:22.319Z,6.77
2019-03-16T14:05:53.103Z,6.40
2019-03-16T14:08:24.072Z,4.30
2019-03-16T14:10:54.807Z,5.67
2019-03-16T14:13:25.986Z,8.10
2019-03-16T14:15:57.732Z,8.17
2019-03-16T14:18:28.642Z,5.73
2019-03-16T14:20:59.148Z,5.77
2019-03-16T14:23:29.592Z,5.10
2019-03-16T14:26:00.990Z,9.70
2019-03-16T14:28:31.534Z,5.77
2019-03-16T14:31:02.398Z,4.27
2019-03-16T14:33:33.729Z,4.63
2019-03-16T14:36:06.962Z,5.13
2019-03-16T14:38:38.102Z,6.90
2019-03-16T14:41:08.744Z,7.87
2019-03-16T14:43:39.916Z,9.17
2019-03-16T14:46:11.821Z,6.77
2019-03-16T14:48:43.102Z,5.93
2019-03-16T14:51:13.890Z,5.70
2019-03-16T14:53:44.474Z,7.57
2019-03-16T14:56:15.668Z,6.50
2019-03-16T14:58:46.152Z,4.37
2019-03-16T15:01:17.045Z,5.63
2019-03-16T15:03:48.326Z,8.73
2019-03-16T15:06:19.729Z,9.83
2019-03-16T15:08:51.319Z,5.23
2019-03-16T15:11:22.391Z,3.73
2019-03-16T15:13:53.819Z,6.17
2019-03-16T15:16:24.300Z,7.23
2019-03-16T15:18:55.227Z,2.23
2019-03-16T15:21:26.175Z,6.87
2019-03-16T15:23:57.775Z,7.47
2019-03-16T15:26:28.290Z,5.33
2019-03-16T15:28:58.981Z,6.83
2019-03-16T15:31:30.056Z,6.20
2019-03-16T15:34:03.960Z,6.07
2019-03-16T15:36:35.608Z,4.43
2019-03-16T15:39:07.417Z,7.63
2019-03-16T15:41:38.305Z,4.77
2019-03-16T15:44:09.207Z,7.97
2019-03-16T15:46:39.963Z,8.17
2019-03-16T15:49:11.476Z,5.17
2019-03-16T15:51:42.622Z,5.67
2019-03-16T15:54:13.591Z,5.67
2019-03-16T15:56:44.517Z,4.57
2019-03-16T15:59:15.125Z,5.57
2019-03-16T16:01:47.153Z,4.43
2019-03-16T16:04:18.127Z,8.93
2019-03-16T16:06:48.978Z,8.13
2019-03-16T16:09:21.768Z,4.20
2019-03-16T16:11:52.744Z,5.47
2019-03-16T16:14:26.249Z,5.37
2019-03-16T16:16:56.765Z,4.27
2019-03-16T16:19:27.644Z,4.83
2019-03-16T16:21:59.549Z,5.73
2019-03-16T16:24:30.597Z,7.07
2019-03-16T16:27:01.219Z,6.97
2019-03-16T16:29:31.715Z,5.17
2019-03-16T16:32:04.782Z,5.33
2019-03-16T16:34:36.202Z,7.17
2019-03-16T16:37:08.058Z,5.80
2019-03-16T16:39:38.799Z,6.63
2019-03-16T16:42:10.175Z,7.77
2019-03-16T16:44:40.950Z,3.87
2019-03-16T16:47:11.785Z,2.87
2019-03-16T16:49:42.459Z,4.30
2019-03-16T16:52:13.997Z,4.30
2019-03-16T16:54:44.485Z,5.13
2019-03-16T16:57:15.274Z,5.43
2019-03-16T16:59:46.610Z,4.87
2019-03-16T17:02:17.013Z,3.77
2019-03-16T17:04:47.728Z,3.83
2019-03-16T17:07:18.498Z,3.13
2019-03-16T17:09:49.363Z,2.13
2019-03-16T17:12:19.932Z,6.50
2019-03-16T17:14:50.333Z,6.70
2019-03-16T17:17:20.983Z,6.63
2019-03-16T17:19:52.039Z,5.87
2019-03-16T17:22:23.498Z,6.90
2019-03-16T17:24:54.051Z,4.77
2019-03-16T17:27:24.762Z,8.87
2019-03-16T17:29:55.545Z,8.67
2019-03-16T17:32:26.316Z,5.73
2019-03-16T17:34:58.082Z,4.57
2019-03-16T17:37:29.166Z,6.17
2019-03-16T17:40:01.093Z,4.60
2019-03-16T17:42:32.685Z,4.00
2019-03-16T17:45:03.184Z,5.23
2019-03-16T17:47:34.120Z,5.63
2019-03-16T17:50:06.733Z,5.70
2019-03-16T17:52:37.232Z,8.00
2019-03-16T17:55:10.344Z,5.33
2019-03-16T17:57:44.910Z,4.73
2019-03-16T18:00:17.506Z,5.47
2019-03-16T18:02:52.571Z,6.40
2019-03-16T18:05:20.544Z,6.27
2019-03-16T18:07:52.910Z,7.80
2019-03-16T18:10:23.454Z,4.07
2019-03-16T18:12:54.315Z,4.83
2019-03-16T18:15:24.681Z,5.47
2019-03-16T18:17:55.069Z,6.47
2019-03-16T18:20:25.809Z,5.87
2019-03-16T18:22:56.413Z,11.53
2019-03-16T18:25:27.117Z,13.07
2019-03-16T18:27:58.320Z,16.10
2019-03-16T18:30:28.806Z,21.40
2019-03-16T18:32:59.583Z,23.37
2019-03-16T18:35:30.322Z,32.43
2019-03-16T18:38:01.132Z,32.70
2019-03-16T18:40:32.244Z,34.77
2019-03-16T18:43:02.888Z,30.83
2019-03-16T18:45:34.287Z,33.50
2019-03-16T18:48:06.131Z,28.90
2019-03-16T18:50:36.681Z,22.20
2019-03-16T18:53:07.378Z,20.60
2019-03-16T18:55:38.379Z,21.17
2019-03-16T18:58:09.342Z,16.37
2019-03-16T19:00:40.171Z,14.57
2019-03-16T19:03:12.110Z,16.93
2019-03-16T19:05:43.157Z,22.50
2019-03-16T19:08:13.734Z,14.33
2019-03-16T19:10:44.376Z,18.00
2019-03-16T19:13:15.010Z,21.23
2019-03-16T19:15:46.324Z,19.47
2019-03-16T19:18:16.835Z,23.97
2019-03-16T19:20:49.342Z,21.10
2019-03-16T19:23:20.898Z,18.67
2019-03-16T19:25:51.669Z,14.73
2019-03-16T19:28:23.937Z,13.13
2019-03-16T19:30:54.453Z,16.87
2019-03-16T19:33:26.723Z,17.80
2019-03-16T19:35:57.649Z,14.00
2019-03-16T19:38:28.182Z,12.27
2019-03-16T19:40:58.811Z,13.33
2019-03-16T19:43:29.969Z,12.17
2019-03-16T19:46:00.796Z,9.93
2019-03-16T19:48:34.374Z,14.20
2019-03-16T19:51:05.389Z,12.37
2019-03-16T19:53:37.195Z,10.63
2019-03-16T19:56:08.934Z,11.33
2019-03-16T19:58:39.530Z,9.97
2019-03-16T20:01:10.242Z,12.97
2019-03-16T20:03:41.007Z,12.97
2019-03-16T20:06:24.859Z,13.57
2019-03-16T20:08:45.657Z,13.00
2019-03-16T20:11:16.491Z,12.73
2019-03-16T20:13:47.274Z,13.20
2019-03-16T20:16:18.139Z,12.83
2019-03-16T20:18:49.885Z,9.07
2019-03-16T20:21:21.029Z,14.27
2019-03-16T20:23:53.670Z,14.80
2019-03-16T20:26:24.059Z,17.40
2019-03-16T20:28:55.296Z,15.00
2019-03-16T20:31:25.718Z,14.67
2019-03-16T20:33:56.256Z,16.40
2019-03-16T20:36:29.500Z,14.07
2019-03-16T20:39:00.526Z,14.30
2019-03-16T20:41:35.916Z,12.80
2019-03-16T20:44:04.360Z,13.03
2019-03-16T20:46:35.550Z,14.70
2019-03-16T20:49:06.353Z,11.93
2019-03-16T20:51:38.192Z,12.77
2019-03-16T20:54:08.781Z,10.13
2019-03-16T20:56:40.036Z,11.60
2019-03-16T20:59:11.460Z,14.40
2019-03-16T21:01:42.565Z,12.53
2019-03-16T21:04:14.046Z,15.63
2019-03-16T21:06:45.456Z,11.93
2019-03-16T21:09:16.475Z,10.57
2019-03-16T21:11:49.509Z,13.27
2019-03-16T21:14:21.963Z,13.13
2019-03-16T21:16:53.480Z,11.67
2019-03-16T21:19:25.393Z,11.43
2019-03-16T21:21:58.101Z,13.23
2019-03-16T21:24:31.085Z,11.13
2019-03-16T21:27:02.004Z,17.03
2019-03-16T21:29:34.172Z,14.13
2019-03-16T21:32:05.087Z,13.27
2019-03-16T21:34:36.611Z,15.20
2019-03-16T21:37:07.536Z,15.20
2019-03-16T21:39:38.524Z,15.43
2019-03-16T21:42:09.532Z,15.10
2019-03-16T21:44:41.764Z,15.00
2019-03-16T21:47:12.637Z,12.87
2019-03-16T21:49:44.902Z,15.83
2019-03-16T21:52:15.932Z,15.63
2019-03-16T21:54:46.618Z,16.47
2019-03-16T21:57:21.542Z,15.90
2019-03-16T21:59:52.274Z,17.20
2019-03-16T22:02:22.835Z,19.03
2019-03-16T22:04:53.991Z,17.80
2019-03-16T22:07:24.932Z,18.13
2019-03-16T22:09:56.709Z,18.83
2019-03-16T22:12:27.182Z,16.83
2019-03-16T22:14:58.446Z,16.47
2019-03-16T22:17:31.059Z,16.83
2019-03-16T22:20:01.797Z,16.50
2019-03-16T22:22:34.074Z,17.43
2019-03-16T22:25:06.638Z,16.53
2019-03-16T22:27:38.516Z,17.10
2019-03-16T22:30:14.520Z,16.80
2019-03-16T22:32:45.333Z,14.83
2019-03-16T22:35:16.174Z,13.30
2019-03-16T22:37:47.011Z,17.17
2019-03-16T22:40:20.663Z,16.07
2019-03-16T22:42:51.287Z,16.57
2019-03-16T22:45:23.407Z,16.47
2019-03-16T22:47:55.491Z,16.83
2019-03-16T22:50:27.276Z,16.90
2019-03-16T22:52:58.089Z,17.67
2019-03-16T22:55:28.974Z,18.27
2019-03-16T22:57:59.396Z,16.47
2019-03-16T23:00:37.271Z,16.77
2019-03-16T23:03:08.302Z,15.23
2019-03-16T23:05:39.565Z,17.40
2019-03-16T23:08:10.334Z,18.73
2019-03-16T23:10:40.917Z,16.00
2019-03-16T23:13:13.304Z,17.77
2019-03-16T23:15:44.098Z,17.60
2019-03-16T23:18:14.877Z,17.90
2019-03-16T23:20:45.402Z,16.47
2019-03-16T23:23:16.131Z,15.93
2019-03-16T23:25:47.003Z,18.10
2019-03-16T23:28:18.469Z,14.80
2019-03-16T23:30:50.411Z,17.20
2019-03-16T23:33:21.033Z,15.40
2019-03-16T23:35:51.511Z,20.53
2019-03-16T23:38:22.175Z,15.33
2019-03-16T23:40:55.317Z,16.93
2019-03-16T23:43:26.115Z,14.57
2019-03-16T23:45:56.627Z,14.70
2019-03-16T23:48:27.061Z,12.60
2019-03-16T23:50:58.714Z,13.17
2019-03-16T23:53:29.282Z,13.17
2019-03-16T23:56:00.382Z,12.10
2019-03-16T23:58:31.088Z,10.87
